Rickmers Dalian — V7FS3 — position and weather

sailwx.info

Track history (hours):
 
Tides and Currents Weather Stations Pressure Air Temp Water Temp Dewpoint Dewpoint Depression Visibility Wind Speed Wind Dir Waves Ship Positions

Rickmers Dalian

Last reported at 2017-Feb-23 04:33 UTC. Time now 2017-Feb-23 04:49 UTC.
Position N 26°12' W 079°28'.

Length 193 m; beam 27.8 m; draft 11.2 m.

Type: Ship. MMSI: 538090156.

Date/timePositionNaut miles runAvg speedWind from/ knotsBaromVisibWave heightAir tempDewpointWater temp
2017-Feb-23 04:33N 26°12' W 079°28'1919.1
2017-Feb-23 03:33N 25°53' W 079°31'1919.1
2017-Feb-23 02:33N 25°34' W 079°35'  
2017-Feb-19 11:28N 29°55' W 090°05'6 6.2
2017-Feb-19 10:33N 29°56' W 089°59'20 7.8
2017-Feb-19 08:03N 29°37' W 089°53'913.2
2017-Feb-19 07:21N 29°32' W 089°44'911.5
2017-Feb-19 06:32N 29°25' W 089°36'28110.8
2017-Feb-18 04:31N 29°41' W 094°59'9 7.3
2017-Feb-18 03:14N 29°44' W 095°09'5 5.0
2017-Feb-18 02:09N 29°44' W 095°15'1 0.1
2017-Feb-17 18:30N 29°44' W 095°17'0 0.0
2017-Feb-17 15:33N 29°44' W 095°17'0 0.0
2017-Feb-17 00:27N 29°44' W 095°17'0 0.0
2017-Feb-16 22:30N 29°44' W 095°17'0 0.0
2017-Feb-16 21:30N 29°44' W 095°17'0 0.0
2017-Feb-16 19:24N 29°44' W 095°17'0 0.0
2017-Feb-16 18:24N 29°44' W 095°17'0 0.0
2017-Feb-16 17:30N 29°44' W 095°17'0 0.0
2017-Feb-16 15:15N 29°44' W 095°17'0 0.0
2017-Feb-16 14:18N 29°44' W 095°17'0 0.0
2017-Feb-16 13:30N 29°44' W 095°17'0 0.0
2017-Feb-15 19:30N 29°44' W 095°17'0 0.0
2017-Feb-15 03:32N 29°44' W 095°17'3 2.4
2017-Feb-15 02:28N 29°44' W 095°14'4 4.6
2017-Feb-15 01:33N 29°44' W 095°09'5 5.2
2017-Feb-15 00:33N 29°44' W 095°03'6 6.5
2017-Feb-14 23:33N 29°39' W 094°58'9 9.5
2017-Feb-14 22:33N 29°31' W 094°53'  
Track history (hours):
 
Tides and Currents Weather Stations Pressure Air Temp Water Temp Dewpoint Dewpoint Depression Visibility Wind Speed Wind Dir Waves Ship Positions

Rickmers Dalian

Last reported at 2017-Feb-23 04:33 UTC. Time now 2017-Feb-23 04:49 UTC.
Position N 26°12' W 079°28'.

Length 193 m; beam 27.8 m; draft 11.2 m.

Type: Ship. MMSI: 538090156.

Date/timePositionNaut miles runAvg speedWind from/ knotsBaromVisibWave heightAir tempDewpointWater temp
2017-Feb-23 04:33N 26°12' W 079°28'1919.1
2017-Feb-23 03:33N 25°53' W 079°31'1919.1
2017-Feb-23 02:33N 25°34' W 079°35'  
2017-Feb-19 11:28N 29°55' W 090°05'6 6.2
2017-Feb-19 10:33N 29°56' W 089°59'20 7.8
2017-Feb-19 08:03N 29°37' W 089°53'913.2
2017-Feb-19 07:21N 29°32' W 089°44'911.5
2017-Feb-19 06:32N 29°25' W 089°36'28110.8
2017-Feb-18 04:31N 29°41' W 094°59'9 7.3
2017-Feb-18 03:14N 29°44' W 095°09'5 5.0
2017-Feb-18 02:09N 29°44' W 095°15'1 0.1
2017-Feb-17 18:30N 29°44' W 095°17'0 0.0
2017-Feb-17 15:33N 29°44' W 095°17'0 0.0
2017-Feb-17 00:27N 29°44' W 095°17'0 0.0
2017-Feb-16 22:30N 29°44' W 095°17'0 0.0
2017-Feb-16 21:30N 29°44' W 095°17'0 0.0
2017-Feb-16 19:24N 29°44' W 095°17'0 0.0
2017-Feb-16 18:24N 29°44' W 095°17'0 0.0
2017-Feb-16 17:30N 29°44' W 095°17'0 0.0
2017-Feb-16 15:15N 29°44' W 095°17'0 0.0
2017-Feb-16 14:18N 29°44' W 095°17'0 0.0
2017-Feb-16 13:30N 29°44' W 095°17'0 0.0
2017-Feb-15 19:30N 29°44' W 095°17'0 0.0
2017-Feb-15 03:32N 29°44' W 095°17'3 2.4
2017-Feb-15 02:28N 29°44' W 095°14'4 4.6
2017-Feb-15 01:33N 29°44' W 095°09'5 5.2
2017-Feb-15 00:33N 29°44' W 095°03'6 6.5
2017-Feb-14 23:33N 29°39' W 094°58'9 9.5
2017-Feb-14 22:33N 29°31' W 094°53'  

Dump ship's entire track history